Time;durP1;ratioP1;P1;durP2;ratioP2;P2;SDS_P1;SDS_P2;PMS_P1;PMS_P2;Temp;Humidity;BMP_temperature;BMP_pressure;BME280_temperature;BME280_humidity;BME280_pressure;Samples;Min_cycle;Max_cycle;Signal;HPM_P1;HPM_P2
2023/02/12 06:13:22;;;;;;;17.90;4.53;;;15.10;68.30;;;;;;5739024;23;20049;-75
2023/02/12 06:16:04;;;;;;;21.20;4.13;;;15.20;68.30;;;;;;4849549;29;20053;-77
2023/02/12 06:18:30;;;;;;;16.52;3.88;;;15.20;67.90;;;;;;4865672;29;20149;-75
2023/02/12 06:20:56;;;;;;;21.02;4.82;;;15.30;67.90;;;;;;4866311;29;20068;-77
2023/02/12 06:23:23;;;;;;;21.05;4.32;;;15.30;68.00;;;;;;4866884;29;20048;-76
2023/02/12 06:25:50;;;;;;;27.02;4.10;;;15.30;67.90;;;;;;4851370;29;20085;-77
2023/02/12 06:28:16;;;;;;;15.90;3.78;;;15.40;68.10;;;;;;4883039;29;20504;-76
2023/02/12 06:30:42;;;;;;;15.10;3.85;;;15.50;68.10;;;;;;4867172;29;20076;-77
2023/02/12 06:33:07;;;;;;;16.25;4.15;;;15.50;68.00;;;;;;4866466;29;20096;-78
2023/02/12 06:35:36;;;;;;;18.30;3.75;;;15.50;68.00;;;;;;4881707;29;20417;-77
2023/02/12 06:38:03;;;;;;;24.15;4.13;;;15.50;68.00;;;;;;4866377;29;20052;-77
2023/02/12 06:40:29;;;;;;;16.15;4.20;;;15.50;68.00;;;;;;4882549;29;20053;-77
2023/02/12 06:42:55;;;;;;;20.50;3.70;;;15.50;67.80;;;;;;4882732;29;20053;-77
2023/02/12 06:45:21;;;;;;;13.82;5.25;;;15.60;67.60;;;;;;4881750;29;20483;-77
2023/02/12 06:47:46;;;;;;;22.92;6.32;;;15.60;66.90;;;;;;4882462;29;20044;-78
2023/02/12 06:50:12;;;;;;;17.27;5.43;;;15.60;65.30;;;;;;4866520;29;20455;-77
2023/02/12 06:52:38;;;;;;;24.25;6.05;;;15.70;64.90;;;;;;4865580;29;20057;-77
2023/02/12 06:55:04;;;;;;;14.95;5.60;;;15.70;65.10;;;;;;4866279;29;20440;-77
2023/02/12 06:57:30;;;;;;;17.58;5.88;;;15.70;65.20;;;;;;4882069;29;20060;-76
2023/02/12 06:59:56;;;;;;;17.52;5.82;;;15.70;65.00;;;;;;4881619;29;20057;-79
2023/02/12 07:02:25;;;;;;;15.98;5.50;;;15.70;64.90;;;;;;4863423;29;20047;-80
2023/02/12 07:04:51;;;;;;;10.88;5.53;;;15.80;64.00;;;;;;4880990;29;20064;-79
2023/02/12 07:07:17;;;;;;;15.90;5.90;;;15.80;63.50;;;;;;4881391;29;20045;-75
2023/02/12 07:09:42;;;;;;;15.20;5.00;;;15.80;63.40;;;;;;4881537;29;20060;-75
2023/02/12 07:12:08;;;;;;;19.13;5.57;;;15.80;63.30;;;;;;4881965;29;20040;-75
2023/02/12 07:14:34;;;;;;;14.30;5.15;;;15.80;63.20;;;;;;4881310;29;20067;-75
2023/02/12 07:17:02;;;;;;;14.50;4.65;;;15.90;63.20;;;;;;4878035;29;20045;-78
2023/02/12 07:19:29;;;;;;;13.77;4.53;;;15.90;63.10;;;;;;4874997;29;20113;-78
2023/02/12 07:21:55;;;;;;;14.35;4.35;;;15.90;63.10;;;;;;4878216;29;20368;-76
2023/02/12 07:24:21;;;;;;;14.85;4.57;;;16.00;63.20;;;;;;4881576;29;20047;-76
2023/02/12 07:26:47;;;;;;;13.95;4.53;;;16.10;63.30;;;;;;4864649;29;20132;-78
2023/02/12 07:29:14;;;;;;;10.35;4.53;;;16.00;63.00;;;;;;4875859;29;20087;-77
2023/02/12 07:31:41;;;;;;;11.88;4.78;;;16.10;62.90;;;;;;4875777;29;20109;-77
2023/02/12 07:34:09;;;;;;;11.25;4.57;;;16.10;63.00;;;;;;4880194;29;20359;-79
2023/02/12 07:36:35;;;;;;;7.65;4.07;;;16.00;63.00;;;;;;4859255;29;20045;-77
2023/02/12 07:39:01;;;;;;;10.55;3.90;;;16.10;63.10;;;;;;4880494;29;20064;-78
2023/02/12 07:41:30;;;;;;;10.15;3.80;;;16.10;63.10;;;;;;4877034;29;20101;-77
2023/02/12 07:44:08;;;;;;;12.18;4.50;;;16.20;63.10;;;;;;4862795;29;20049;-76
2023/02/12 07:46:54;;;;;;;9.05;3.90;;;16.20;63.00;;;;;;4880479;29;20385;-77
2023/02/12 07:49:21;;;;;;;6.88;3.50;;;16.20;62.80;;;;;;4860724;29;20053;-76
2023/02/12 07:51:48;;;;;;;10.73;3.22;;;16.20;63.00;;;;;;4861818;29;20049;-78
2023/02/12 07:54:15;;;;;;;8.95;3.20;;;16.10;63.00;;;;;;4864898;29;20083;-78
2023/02/12 07:56:45;;;;;;;9.02;3.25;;;16.20;63.10;;;;;;4864444;29;20460;-76
2023/02/12 07:59:13;;;;;;;11.45;3.55;;;16.10;63.10;;;;;;4881102;29;20045;-76
2023/02/12 08:01:48;;;;;;;7.72;3.50;;;16.20;63.10;;;;;;4864724;29;20056;-80
2023/02/12 08:04:22;;;;;;;12.15;3.72;;;16.10;63.00;;;;;;4881091;29;20053;-77
2023/02/12 08:06:51;;;;;;;10.02;3.72;;;16.20;62.90;;;;;;4860100;29;20240;-77
2023/02/12 08:09:23;;;;;;;14.20;4.55;;;16.20;63.20;;;;;;4872355;29;20045;-76
2023/02/12 08:11:49;;;;;;;10.15;4.07;;;16.20;63.10;;;;;;4882400;29;20101;-79
2023/02/12 08:14:17;;;;;;;13.20;3.70;;;16.20;63.10;;;;;;4867031;29;20089;-77
2023/02/12 08:16:45;;;;;;;9.73;3.05;;;16.20;63.20;;;;;;4882551;29;20057;-76
2023/02/12 08:19:11;;;;;;;13.82;5.35;;;16.20;63.30;;;;;;4894529;29;20044;-78
2023/02/12 08:21:43;;;;;;;13.70;6.55;;;16.20;63.00;;;;;;4865269;29;20357;-78
2023/02/12 08:24:14;;;;;;;19.10;7.72;;;16.20;61.60;;;;;;4879078;29;20102;-79
2023/02/12 08:26:43;;;;;;;16.60;5.78;;;16.20;61.40;;;;;;4879816;29;20116;-79
2023/02/12 08:29:20;;;;;;;19.83;7.18;;;16.10;61.50;;;;;;4880204;29;20124;-79
2023/02/12 08:31:48;;;;;;;15.85;5.45;;;16.20;61.70;;;;;;4864038;29;20037;-79
2023/02/12 08:34:17;;;;;;;16.42;6.18;;;16.20;62.10;;;;;;4864135;29;20052;-77
2023/02/12 08:36:43;;;;;;;14.93;5.88;;;16.20;62.30;;;;;;4864976;29;20120;-80
2023/02/12 08:39:12;;;;;;;14.75;7.10;;;16.20;62.50;;;;;;4849243;29;20201;-82
2023/02/12 08:41:41;;;;;;;22.75;6.35;;;16.20;62.10;;;;;;4848825;29;20055;-78
2023/02/12 08:44:07;;;;;;;18.23;6.10;;;16.10;62.10;;;;;;4881138;29;20041;-78
2023/02/12 08:46:39;;;;;;;16.00;5.35;;;16.20;62.80;;;;;;4880369;29;20036;-83
2023/02/12 08:49:08;;;;;;;20.40;5.32;;;16.20;62.90;;;;;;4862042;29;20480;-79
2023/02/12 08:51:37;;;;;;;21.67;6.13;;;16.30;63.20;;;;;;4845944;29;20368;-81
2023/02/12 08:54:05;;;;;;;15.25;5.35;;;16.30;63.20;;;;;;4852656;29;20041;-76
2023/02/12 08:56:33;;;;;;;17.98;5.10;;;16.20;63.20;;;;;;4864545;29;20354;-77
2023/02/12 08:59:01;;;;;;;15.18;5.43;;;16.20;63.30;;;;;;4864467;29;20057;-79
2023/02/12 09:01:29;;;;;;;23.08;5.45;;;16.20;63.40;;;;;;4881052;29;20052;-76
2023/02/12 09:03:55;;;;;;;19.88;5.00;;;16.20;63.50;;;;;;4848859;29;20445;-77
2023/02/12 09:06:22;;;;;;;19.95;4.95;;;16.30;63.70;;;;;;4880898;29;20056;-79
2023/02/12 09:08:49;;;;;;;23.85;5.50;;;16.30;63.90;;;;;;4879650;29;20413;-80
2023/02/12 09:11:29;;;;;;;25.20;5.93;;;16.30;64.10;;;;;;4881107;29;20053;-78
2023/02/12 09:13:56;;;;;;;17.00;4.65;;;16.20;64.30;;;;;;4864268;29;20057;-77
2023/02/12 09:16:21;;;;;;;27.90;5.72;;;16.20;64.40;;;;;;4880551;29;20419;-77
2023/02/12 09:18:47;;;;;;;22.80;5.88;;;16.20;65.20;;;;;;4863805;29;20080;-77
2023/02/12 09:21:15;;;;;;;23.15;7.10;;;16.10;64.50;;;;;;4866363;29;20064;-78
2023/02/12 09:23:42;;;;;;;21.02;9.10;;;16.10;64.20;;;;;;4879716;29;20048;-80
2023/02/12 09:26:15;;;;;;;21.45;10.02;;;16.10;63.80;;;;;;4867278;29;20045;-80
2023/02/12 09:28:41;;;;;;;17.95;10.30;;;16.10;62.90;;;;;;4848296;29;20056;-79
2023/02/12 09:31:21;;;;;;;16.88;8.85;;;16.00;62.40;;;;;;4849247;29;20080;-80
2023/02/12 09:33:48;;;;;;;15.95;8.52;;;15.90;61.70;;;;;;4849160;29;20077;-79
2023/02/12 09:36:15;;;;;;;15.98;8.93;;;15.90;61.80;;;;;;4848915;29;20037;-79
2023/02/12 09:38:41;;;;;;;16.35;8.48;;;15.80;61.70;;;;;;4849353;29;20420;-80
2023/02/12 09:41:13;;;;;;;15.70;7.97;;;15.80;61.80;;;;;;4849101;29;20116;-80
2023/02/12 09:44:16;;;;;;;14.93;8.45;;;15.70;61.80;;;;;;4881518;29;20392;-82
2023/02/12 09:46:50;;;;;;;13.45;7.00;;;15.70;61.70;;;;;;4868075;29;20080;-80
2023/02/12 09:49:42;;;;;;;;;;;15.60;62.00;;;;;;4852846;29;20107;-79
2023/02/12 09:52:16;;;;;;;12.90;7.20;;;15.60;61.80;;;;;;4867650;29;19920;-80
2023/02/12 09:54:43;;;;;;;10.93;6.97;;;15.50;62.20;;;;;;4883020;29;20045;-79
2023/02/12 09:57:34;;;;;;;9.20;5.50;;;15.50;62.30;;;;;;4867937;29;20105;-81
2023/02/12 10:00:10;;;;;;;11.52;6.88;;;15.40;62.10;;;;;;4860698;29;20596;-80
2023/02/12 10:02:38;;;;;;;11.35;6.18;;;15.40;62.40;;;;;;4883093;29;20149;-80
2023/02/12 10:05:14;;;;;;;10.27;6.07;;;15.40;62.50;;;;;;4851659;29;20080;-78
2023/02/12 10:08:27;;;;;;;13.10;6.15;;;15.30;62.50;;;;;;4851521;29;20041;-79
2023/02/12 10:11:25;;;;;;;12.85;5.50;;;15.30;62.40;;;;;;4811819;29;20099;-80
2023/02/12 10:14:01;;;;;;;14.55;5.68;;;15.30;62.60;;;;;;4847257;29;20061;-79
2023/02/12 10:16:50;;;;;;;9.65;5.50;;;15.20;62.60;;;;;;4883014;29;20053;-79
2023/02/12 10:19:34;;;;;;;10.77;5.03;;;15.20;62.60;;;;;;4867053;29;20033;-79
2023/02/12 10:22:17;;;;;;;6.75;4.80;;;15.20;62.80;;;;;;4882416;29;20041;-79
2023/02/12 10:24:58;;;;;;;8.57;4.60;;;15.20;63.50;;;;;;4866866;29;20052;-79
2023/02/12 10:27:51;;;;;;;7.95;5.25;;;15.10;62.90;;;;;;4882136;29;20045;-78
2023/02/12 10:30:25;;;;;;;7.72;4.65;;;15.10;62.80;;;;;;4851742;29;20037;-78
2023/02/12 10:32:59;;;;;;;;;;;15.10;63.00;;;;;;4882751;29;20047;-77
2023/02/12 10:35:25;;;;;;;6.30;4.55;;;15.00;62.90;;;;;;4851961;29;19920;-79
2023/02/12 10:38:04;;;;;;;7.57;4.65;;;15.00;63.10;;;;;;4881601;29;20037;-79
2023/02/12 10:40:33;;;;;;;8.45;4.00;;;15.00;63.10;;;;;;4866725;29;20045;-81
2023/02/12 10:43:01;;;;;;;9.10;4.10;;;15.00;63.10;;;;;;4851376;29;20041;-79
2023/02/12 10:45:29;;;;;;;6.70;4.00;;;14.90;63.10;;;;;;4851190;29;20049;-80
2023/02/12 10:48:06;;;;;;;6.35;3.83;;;14.90;63.20;;;;;;4867003;29;20080;-80
2023/02/12 10:50:54;;;;;;;5.90;3.55;;;14.90;63.10;;;;;;4850396;29;20041;-78
2023/02/12 10:53:33;;;;;;;6.72;3.75;;;14.90;63.20;;;;;;4866386;29;20041;-79
2023/02/12 10:56:11;;;;;;;5.25;3.63;;;14.90;63.30;;;;;;4866269;29;20043;-79
2023/02/12 10:58:49;;;;;;;4.88;3.42;;;14.90;63.30;;;;;;4882320;29;20049;-78
2023/02/12 11:01:24;;;;;;;5.28;3.58;;;14.90;63.20;;;;;;4866254;29;20041;-80
2023/02/12 11:03:51;;;;;;;5.45;3.00;;;14.80;63.30;;;;;;4865794;29;20053;-78
2023/02/12 11:06:21;;;;;;;5.88;3.28;;;14.90;63.40;;;;;;4866127;29;20517;-78
2023/02/12 11:08:46;;;;;;;6.82;3.45;;;14.80;63.30;;;;;;4866080;29;20136;-80
2023/02/12 11:11:19;;;;;;;6.43;3.20;;;14.80;63.40;;;;;;4865756;29;20154;-79
2023/02/12 11:14:05;;;;;;;5.72;3.25;;;14.80;63.40;;;;;;4865867;29;20464;-78
2023/02/12 11:16:34;;;;;;;7.22;3.05;;;14.80;63.40;;;;;;4881351;29;20055;-79
2023/02/12 11:19:07;;;;;;;5.40;3.33;;;14.80;63.50;;;;;;4865854;29;20056;-79
2023/02/12 11:21:35;;;;;;;5.30;3.38;;;14.70;63.50;;;;;;4866560;29;20398;-78
2023/02/12 11:24:30;;;;;;;6.20;3.10;;;14.70;63.50;;;;;;4865956;29;20051;-78
2023/02/12 11:27:14;;;;;;;5.25;3.20;;;14.70;63.40;;;;;;4865602;29;20049;-81
2023/02/12 11:29:44;;;;;;;4.68;2.85;;;14.70;63.50;;;;;;4881909;29;20316;-80
2023/02/12 11:32:16;;;;;;;5.38;3.33;;;14.70;63.60;;;;;;4881002;29;20531;-78
2023/02/12 11:34:42;;;;;;;5.10;2.90;;;14.60;63.60;;;;;;4850760;29;20076;-79
2023/02/12 11:37:19;;;;;;;5.00;2.63;;;14.70;63.80;;;;;;4874083;29;20092;-78
2023/02/12 11:39:47;;;;;;;4.18;2.80;;;14.60;63.70;;;;;;4850322;29;20055;-80
2023/02/12 11:42:17;;;;;;;4.25;2.50;;;14.60;63.80;;;;;;4865333;29;20056;-79
2023/02/12 11:44:53;;;;;;;4.00;2.45;;;14.60;63.80;;;;;;4850118;29;20048;-80
2023/02/12 11:47:26;;;;;;;3.47;2.67;;;14.60;63.90;;;;;;4865560;29;20045;-80
2023/02/12 11:50:00;;;;;;;3.95;2.53;;;14.60;63.90;;;;;;4850443;29;20033;-78
2023/02/12 11:52:31;;;;;;;4.40;3.03;;;14.60;63.90;;;;;;4866075;29;20044;-80
2023/02/12 11:55:01;;;;;;;3.45;2.30;;;14.60;63.90;;;;;;4849531;29;20041;-79
2023/02/12 11:57:43;;;;;;;3.25;2.17;;;14.60;64.00;;;;;;4865701;29;20052;-80
2023/02/12 12:00:18;;;;;;;4.30;2.45;;;14.60;64.00;;;;;;4865108;29;20044;-79
2023/02/12 12:03:01;;;;;;;4.43;3.00;;;14.60;64.00;;;;;;4880860;29;20049;-80
2023/02/12 12:05:34;;;;;;;3.08;2.28;;;14.50;64.00;;;;;;4880301;29;20119;-78
2023/02/12 12:08:06;;;;;;;3.13;2.40;;;14.50;64.00;;;;;;4865302;29;20041;-78
2023/02/12 12:10:42;;;;;;;3.25;2.30;;;14.60;64.00;;;;;;4865746;29;20044;-79
2023/02/12 12:13:23;;;;;;;3.92;2.15;;;14.50;63.90;;;;;;4865179;29;20132;-80
2023/02/12 12:22:24;;;;;;;4.25;2.20;;;14.50;64.10;;;;;;4864611;29;20132;-79
2023/02/12 12:25:06;;;;;;;2.92;2.03;;;14.50;64.10;;;;;;4863004;29;20097;-79
2023/02/12 12:28:02;;;;;;;3.10;2.17;;;14.50;64.10;;;;;;4865275;29;20060;-79
2023/02/12 12:30:35;;;;;;;3.17;2.08;;;14.50;64.10;;;;;;4880393;29;20045;-78
2023/02/12 12:33:07;;;;;;;6.47;2.72;;;14.50;64.20;;;;;;4864742;29;20049;-79
2023/02/12 12:35:54;;;;;;;2.75;1.77;;;14.50;64.20;;;;;;4881206;29;20127;-79
2023/02/12 12:38:57;;;;;;;3.75;2.20;;;14.50;64.20;;;;;;4864640;29;20049;-78
2023/02/12 12:41:32;;;;;;;2.92;2.00;;;14.50;64.20;;;;;;4793751;29;20095;-78
2023/02/12 12:44:25;;;;;;;2.00;1.63;;;14.50;64.30;;;;;;4824238;29;20419;-78
2023/02/12 12:47:06;;;;;;;3.05;1.90;;;14.50;64.30;;;;;;4833541;29;20365;-78
2023/02/12 12:49:53;;;;;;;2.00;1.55;;;14.50;64.60;;;;;;4881092;29;20041;-78
2023/02/12 12:52:44;;;;;;;2.25;1.92;;;14.50;64.60;;;;;;4864748;29;20049;-79
2023/02/12 12:55:48;;;;;;;3.10;2.28;;;14.50;64.70;;;;;;4864518;29;20060;-78
2023/02/12 12:58:22;;;;;;;2.85;2.08;;;14.50;64.60;;;;;;4864962;29;20116;-79
2023/02/12 13:00:51;;;;;;;3.78;1.80;;;14.50;64.80;;;;;;4881284;29;20049;-79
2023/02/12 13:03:44;;;;;;;2.60;1.85;;;14.50;64.80;;;;;;4864985;29;20136;-77
2023/02/12 13:06:26;;;;;;;3.37;2.13;;;14.50;64.70;;;;;;4864481;29;20120;-78
2023/02/12 13:09:30;;;;;;;2.72;1.75;;;14.50;64.80;;;;;;4864577;29;20313;-79
2023/02/12 13:12:12;;;;;;;2.65;2.13;;;14.40;64.60;;;;;;4842058;29;20492;-78
2023/02/12 13:14:45;;;;;;;3.28;2.00;;;14.40;64.80;;;;;;4841723;29;20058;-77
2023/02/12 13:17:48;;;;;;;2.60;1.80;;;14.40;64.80;;;;;;4836741;29;20049;-78
2023/02/12 13:20:45;;;;;;;3.35;2.05;;;14.40;64.70;;;;;;4866431;29;20422;-79
2023/02/12 13:23:19;;;;;;;2.85;1.90;;;14.40;64.80;;;;;;4884318;29;20037;-77
2023/02/12 13:26:00;;;;;;;2.88;1.73;;;14.40;64.80;;;;;;4867877;29;20090;-80
2023/02/12 13:28:46;;;;;;;3.00;2.15;;;14.40;64.80;;;;;;4867807;29;20097;-78
2023/02/12 13:31:16;;;;;;;2.90;1.80;;;14.40;64.80;;;;;;4867493;29;20094;-79
2023/02/12 13:33:55;;;;;;;2.17;1.88;;;14.40;64.80;;;;;;4868208;29;20061;-77
2023/02/12 13:36:22;;;;;;;2.25;1.90;;;14.40;64.80;;;;;;4883317;29;20368;-79
2023/02/12 13:39:08;;;;;;;3.08;2.08;;;14.40;64.90;;;;;;4866986;29;20064;-79
2023/02/12 13:41:34;;;;;;;3.33;2.42;;;14.40;64.80;;;;;;4867566;29;20049;-77
2023/02/12 13:44:04;;;;;;;3.20;1.92;;;14.40;64.90;;;;;;4884044;29;20052;-78
2023/02/12 13:46:33;;;;;;;2.47;1.85;;;14.30;64.90;;;;;;4883074;29;20136;-79
2023/02/12 13:49:15;;;;;;;3.58;2.40;;;14.40;64.90;;;;;;4867762;29;20053;-79
2023/02/12 13:51:48;;;;;;;2.67;1.75;;;14.30;64.90;;;;;;4867854;29;20056;-79
2023/02/12 13:54:32;;;;;;;3.17;2.30;;;14.30;64.90;;;;;;4867308;29;20080;-78
2023/02/12 13:57:01;;;;;;;2.80;2.05;;;14.30;64.90;;;;;;4867781;29;20086;-78
2023/02/12 13:59:32;;;;;;;2.28;1.90;;;14.30;64.90;;;;;;4867802;29;20342;-77
2023/02/12 14:02:25;;;;;;;3.80;2.00;;;14.30;64.90;;;;;;4883931;29;20049;-79
2023/02/12 14:05:29;;;;;;;2.67;1.73;;;14.30;64.80;;;;;;4843086;29;20369;-78
2023/02/12 14:07:59;;;;;;;2.25;1.50;;;14.30;64.80;;;;;;4882651;29;20045;-77
2023/02/12 14:10:32;;;;;;;3.15;1.92;;;14.30;64.80;;;;;;4883879;29;20057;-79
2023/02/12 14:13:22;;;;;;;1.50;1.20;;;14.30;64.80;;;;;;4867153;29;20460;-79
2023/02/12 14:15:53;;;;;;;2.35;1.77;;;14.30;64.80;;;;;;4866937;29;20061;-77
2023/02/12 14:18:33;;;;;;;2.78;1.75;;;14.30;64.80;;;;;;4882331;29;20121;-79
2023/02/12 14:21:11;;;;;;;2.17;1.60;;;14.30;65.00;;;;;;4867331;29;20053;-79
2023/02/12 14:23:41;;;;;;;3.65;1.98;;;14.30;64.80;;;;;;4866918;29;20135;-77
2023/02/12 14:26:11;;;;;;;1.67;1.50;;;14.20;64.80;;;;;;4883643;29;20055;-79
2023/02/12 14:28:57;;;;;;;3.63;1.73;;;14.30;64.90;;;;;;4850236;29;20054;-78
2023/02/12 14:31:26;;;;;;;2.53;1.70;;;14.30;64.80;;;;;;4882808;29;20463;-77
2023/02/12 14:34:12;;;;;;;2.10;1.60;;;14.20;64.80;;;;;;4883115;29;20105;-78
2023/02/12 14:36:44;;;;;;;2.22;1.60;;;14.20;64.80;;;;;;4866841;29;20061;-79
2023/02/12 14:39:18;;;;;;;2.08;1.40;;;14.20;64.90;;;;;;4883217;29;20053;-77
2023/02/12 14:41:52;;;;;;;1.75;1.35;;;14.20;64.90;;;;;;4882243;29;20433;-77
2023/02/12 14:44:22;;;;;;;3.10;1.77;;;14.20;64.90;;;;;;4866871;29;20060;-77
2023/02/12 14:46:50;;;;;;;1.75;1.40;;;14.20;64.90;;;;;;4883036;29;20089;-78
2023/02/12 14:49:28;;;;;;;1.90;1.48;;;14.20;64.90;;;;;;4867020;29;20064;-78
2023/02/12 14:52:00;;;;;;;2.00;1.35;;;14.20;65.00;;;;;;4867222;29;20071;-79
2023/02/12 14:54:32;;;;;;;2.13;1.33;;;14.20;65.00;;;;;;4882406;29;20127;-79
2023/02/12 14:57:07;;;;;;;2.03;1.42;;;14.20;65.00;;;;;;4866458;29;20480;-79
2023/02/12 14:59:41;;;;;;;2.65;1.77;;;14.20;64.90;;;;;;4866810;29;20049;-79
2023/02/12 15:02:21;;;;;;;2.20;1.63;;;14.20;65.00;;;;;;4883377;29;20059;-78
2023/02/12 15:04:49;;;;;;;2.47;1.70;;;14.20;65.00;;;;;;4866100;29;20045;-79
2023/02/12 15:07:24;;;;;;;2.63;1.63;;;14.20;65.00;;;;;;4883160;29;20067;-78
2023/02/12 15:10:08;;;;;;;3.22;1.52;;;14.20;65.00;;;;;;4882835;29;20064;-78
2023/02/12 15:12:37;;;;;;;;;;;14.20;65.00;;;;;;4866181;29;20053;-78
2023/02/12 15:15:29;;;;;;;13.25;6.10;;;14.20;64.90;;;;;;4882350;29;19923;-78
2023/02/12 15:18:18;;;;;;;7.70;4.65;;;14.10;64.60;;;;;;4865651;29;20117;-78
2023/02/12 15:20:53;;;;;;;9.40;5.65;;;14.10;64.50;;;;;;4855488;29;20362;-78
2023/02/12 15:23:30;;;;;;;13.77;5.88;;;14.10;65.00;;;;;;4862959;29;20131;-77
2023/02/12 15:25:57;;;;;;;12.90;4.45;;;14.10;65.70;;;;;;4882707;29;20063;-79
2023/02/12 15:28:32;;;;;;;14.77;5.03;;;14.20;66.80;;;;;;4882118;29;20056;-78
2023/02/12 15:31:00;;;;;;;22.20;4.50;;;14.40;66.40;;;;;;4882374;29;20060;-79
2023/02/12 15:33:34;;;;;;;14.52;4.03;;;14.50;66.60;;;;;;4865069;29;20048;-79
2023/02/12 15:36:02;;;;;;;17.45;4.57;;;14.60;66.70;;;;;;4884800;29;20451;-79
2023/02/12 15:38:45;;;;;;;15.65;4.43;;;14.70;66.70;;;;;;4885663;29;20523;-75
2023/02/12 15:41:27;;;;;;;18.77;4.15;;;14.80;66.90;;;;;;4864924;29;20124;-80
2023/02/12 15:44:00;;;;;;;13.18;4.10;;;14.90;67.00;;;;;;4867404;29;20045;-79
2023/02/12 15:46:27;;;;;;;;;;;14.90;67.00;;;;;;4880244;29;20045;-83
2023/02/12 15:49:18;;;;;;;13.55;4.30;;;14.90;67.40;;;;;;4900169;29;20331;-83
2023/02/12 15:51:45;;;;;;;12.75;3.67;;;15.00;67.50;;;;;;4885721;29;20471;-79
2023/02/12 15:54:46;;;;;;;14.88;3.95;;;15.00;67.50;;;;;;4881527;29;20487;-80
2023/02/12 15:57:20;;;;;;;13.20;3.85;;;15.10;68.10;;;;;;4881227;29;20341;-77
2023/02/12 16:20:28;;;;;;;14.48;3.58;;;15.70;69.80;;;;;;4861767;29;20060;-82
2023/02/12 16:23:37;;;;;;;9.68;2.75;;;15.80;69.70;;;;;;4859320;29;20057;-82
2023/02/12 16:34:37;;;;;;;10.90;2.67;;;15.80;68.70;;;;;;5050876;27;2032582;-81
2023/02/12 16:37:42;;;;;;;13.70;3.05;;;15.80;69.20;;;;;;5068981;28;20530;-78
2023/02/12 16:40:11;;;;;;;21.45;3.45;;;15.90;69.20;;;;;;5105303;28;20032;-83
2023/02/12 16:42:46;;;;;;;17.50;2.85;;;15.90;69.10;;;;;;5094181;28;20051;-81
2023/02/12 16:45:27;;;;;;;11.20;2.85;;;15.90;69.10;;;;;;5094718;28;20086;-80
2023/02/12 16:48:07;;;;;;;8.32;2.30;;;15.90;69.10;;;;;;5076713;28;20043;-83
2023/02/12 16:50:35;;;;;;;12.55;2.20;;;15.80;68.20;;;;;;5091816;28;20105;-83
2023/02/12 16:57:05;;;;;;;14.70;3.10;;;15.80;69.10;;;;;;5104023;28;20043;-84
2023/02/12 16:59:31;;;;;;;24.40;4.20;;;15.80;69.30;;;;;;5062298;28;20089;-79
2023/02/12 17:02:03;;;;;;;13.63;3.10;;;15.80;69.40;;;;;;5094426;28;20052;-81
2023/02/12 17:04:29;;;;;;;23.92;3.67;;;15.80;69.40;;;;;;5067937;28;20072;-77
2023/02/12 17:06:56;;;;;;;23.17;4.97;;;15.80;69.40;;;;;;5092289;28;20033;-79
2023/02/12 17:09:29;;;;;;;19.80;5.18;;;15.80;69.00;;;;;;5073900;28;20044;-83
2023/02/12 17:12:03;;;;;;;14.23;5.47;;;15.70;68.20;;;;;;5083374;28;20107;-79
2023/02/12 17:14:29;;;;;;;17.67;5.25;;;15.70;67.10;;;;;;5083272;28;20111;-80
2023/02/12 17:16:55;;;;;;;23.35;5.72;;;15.60;66.60;;;;;;5100688;28;20110;-79
2023/02/12 17:19:20;;;;;;;17.70;5.25;;;15.60;66.70;;;;;;5084607;28;20051;-78
2023/02/12 17:21:48;;;;;;;20.35;5.45;;;15.60;66.80;;;;;;5082800;28;20545;-77
2023/02/12 17:24:23;;;;;;;17.20;4.32;;;15.50;66.90;;;;;;5081459;28;20044;-80
2023/02/12 17:26:50;;;;;;;15.40;4.95;;;15.50;66.90;;;;;;5100992;28;20109;-79
2023/02/12 17:29:17;;;;;;;9.68;3.83;;;15.40;67.00;;;;;;5082596;28;20123;-78
2023/02/12 17:31:43;;;;;;;10.43;4.00;;;15.40;67.20;;;;;;5059808;28;20040;-79
2023/02/12 17:34:08;;;;;;;16.58;4.60;;;15.40;67.30;;;;;;5081352;28;20051;-77
2023/02/12 17:36:34;;;;;;;14.32;3.53;;;15.30;67.30;;;;;;5080226;28;20373;-79
2023/02/12 17:39:03;;;;;;;12.93;3.25;;;15.30;67.40;;;;;;5063986;28;20515;-81
2023/02/12 17:41:28;;;;;;;9.63;3.05;;;15.30;67.50;;;;;;5079620;28;20036;-77
2023/02/12 17:43:54;;;;;;;10.00;3.42;;;15.20;67.60;;;;;;5077096;28;20028;-77
2023/02/12 17:46:24;;;;;;;12.93;3.72;;;15.20;67.70;;;;;;5068363;28;20043;-77
2023/02/12 17:48:49;;;;;;;12.23;3.40;;;15.20;67.70;;;;;;5049445;28;20432;-78
2023/02/12 17:51:15;;;;;;;4.88;3.05;;;15.20;67.80;;;;;;5067958;28;20047;-78
2023/02/12 17:53:41;;;;;;;7.63;3.05;;;15.20;67.90;;;;;;5048344;28;20060;-79
2023/02/12 17:56:11;;;;;;;7.47;2.92;;;15.10;67.90;;;;;;5068542;28;20048;-78
2023/02/12 17:58:38;;;;;;;7.28;3.75;;;15.10;67.90;;;;;;5077274;28;20060;-80
2023/02/12 18:01:08;;;;;;;10.20;4.40;;;15.10;67.80;;;;;;5059976;28;20051;-79
2023/02/12 18:03:34;;;;;;;9.90;6.18;;;15.20;67.80;;;;;;5076649;28;20040;-79
2023/02/12 18:06:00;;;;;;;8.63;5.20;;;15.20;67.40;;;;;;5076581;28;20136;-80
2023/02/12 18:08:29;;;;;;;17.90;7.10;;;15.10;65.70;;;;;;5076380;28;20047;-80
2023/02/12 18:10:55;;;;;;;27.98;9.15;;;15.00;65.20;;;;;;5072453;28;20118;-80
2023/02/12 18:13:28;;;;;;;13.05;6.22;;;15.00;64.80;;;;;;5053784;28;20454;-82
2023/02/12 18:15:54;;;;;;;21.85;7.60;;;15.00;65.10;;;;;;5042374;28;20045;-81
2023/02/12 18:18:20;;;;;;;17.17;7.70;;;15.00;66.00;;;;;;5059510;28;20038;-79
2023/02/12 18:20:55;;;;;;;10.93;6.63;;;15.00;67.40;;;;;;5059905;28;20350;-85
2023/02/12 18:23:20;;;;;;;16.23;6.97;;;15.00;68.50;;;;;;5059507;28;20082;-81
2023/02/12 18:25:46;;;;;;;14.35;7.53;;;15.00;69.00;;;;;;5076847;28;20040;-82
2023/02/12 18:28:15;;;;;;;14.10;7.88;;;15.10;69.90;;;;;;5077105;28;20416;-84
2023/02/12 18:30:45;;;;;;;14.38;6.60;;;15.10;70.60;;;;;;5077107;28;20044;-84
2023/02/12 18:33:14;;;;;;;16.05;5.60;;;15.10;70.70;;;;;;5075168;28;20053;-84
2023/02/12 18:36:22;;;;;;;16.45;5.65;;;15.10;70.40;;;;;;5076624;28;20075;-85
2023/02/12 18:39:00;;;;;;;13.77;5.25;;;15.10;69.60;;;;;;5060226;28;20045;-83
2023/02/12 18:41:29;;;;;;;13.52;5.82;;;15.10;68.10;;;;;;5066222;28;20036;-81
2023/02/12 18:43:56;;;;;;;10.05;5.47;;;15.00;67.60;;;;;;5075700;28;20067;-82
2023/02/12 18:46:26;;;;;;;11.95;5.28;;;15.00;67.60;;;;;;5058869;28;20048;-79
2023/02/12 18:48:53;;;;;;;12.77;5.20;;;15.00;67.50;;;;;;5075433;28;20541;-80
2023/02/12 18:51:25;;;;;;;12.63;4.47;;;15.00;67.40;;;;;;5076321;28;20055;-80
2023/02/12 18:53:55;;;;;;;11.73;4.60;;;15.00;67.80;;;;;;5075477;28;20048;-80
2023/02/12 18:56:21;;;;;;;12.18;4.70;;;14.90;67.00;;;;;;5075522;28;20051;-80
2023/02/12 18:58:47;;;;;;;9.73;4.30;;;14.90;67.00;;;;;;5066273;28;20368;-80
2023/02/12 19:01:15;;;;;;;8.32;4.40;;;14.90;66.90;;;;;;5055388;28;20090;-81
2023/02/12 19:03:42;;;;;;;14.00;4.63;;;14.90;66.90;;;;;;5039201;28;20049;-79
2023/02/12 19:06:08;;;;;;;8.88;4.75;;;14.80;66.80;;;;;;5038736;28;20049;-81
2023/02/12 19:08:33;;;;;;;11.93;4.65;;;14.80;66.80;;;;;;5055423;28;20132;-81
2023/02/12 19:10:59;;;;;;;8.13;3.95;;;14.80;66.70;;;;;;5055718;28;20124;-80
2023/02/12 19:13:25;;;;;;;13.48;3.88;;;14.80;66.70;;;;;;5038968;28;20052;-81
2023/02/12 19:15:51;;;;;;;9.27;4.35;;;14.70;66.70;;;;;;5056160;28;20418;-79
2023/02/12 19:18:16;;;;;;;5.60;3.80;;;14.70;66.70;;;;;;5056188;28;20056;-80
2023/02/12 19:20:42;;;;;;;6.40;3.58;;;14.70;66.70;;;;;;5055434;28;20387;-80
2023/02/12 19:23:08;;;;;;;7.90;3.90;;;14.70;66.90;;;;;;5038252;28;20045;-81
2023/02/12 19:25:46;;;;;;;7.90;4.50;;;14.70;66.90;;;;;;5055642;28;20060;-81
2023/02/12 19:28:12;;;;;;;10.20;4.10;;;14.60;66.90;;;;;;5038315;28;20201;-80
2023/02/12 19:30:50;;;;;;;10.05;4.30;;;14.60;67.00;;;;;;5065915;28;20419;-84
2023/02/12 19:33:18;;;;;;;8.60;3.65;;;14.70;67.70;;;;;;5080770;28;20462;-79
